createdAt,value
2022-10-11T00:00:54.120Z,5.57
2022-10-11T00:03:22.498Z,5.05
2022-10-11T00:05:50.691Z,5.10
2022-10-11T00:08:20.244Z,5.45
2022-10-11T00:10:57.674Z,5.05
2022-10-11T00:13:26.192Z,6.10
2022-10-11T00:15:54.351Z,5.90
2022-10-11T00:18:22.961Z,5.32
2022-10-11T00:20:50.983Z,5.55
2022-10-11T00:23:20.525Z,5.28
2022-10-11T00:25:58.039Z,6.05
2022-10-11T00:28:26.315Z,4.75
2022-10-11T00:30:56.223Z,5.93
2022-10-11T00:33:24.382Z,6.88
2022-10-11T00:35:52.585Z,5.90
2022-10-11T00:38:21.966Z,5.35
2022-10-11T00:40:50.069Z,6.30
2022-10-11T00:43:20.409Z,6.10
2022-10-11T00:46:03.095Z,5.60
2022-10-11T00:48:40.025Z,5.35
2022-10-11T00:51:15.292Z,7.18
2022-10-11T00:53:45.092Z,6.18
2022-10-11T00:56:19.377Z,6.55
2022-10-11T00:58:47.813Z,6.78
2022-10-11T01:01:15.824Z,6.15
2022-10-11T01:03:45.093Z,5.85
2022-10-11T01:06:13.151Z,6.55
2022-10-11T01:08:41.356Z,6.28
2022-10-11T01:11:15.267Z,7.43
2022-10-11T01:13:54.486Z,7.47
2022-10-11T01:16:30.295Z,6.65
2022-10-11T01:19:12.949Z,6.28
2022-10-11T01:21:48.009Z,6.40
2022-10-11T01:24:48.943Z,6.85
2022-10-11T01:27:45.214Z,8.00
2022-10-11T01:30:23.355Z,7.70
2022-10-11T01:33:00.661Z,7.35
2022-10-11T01:35:34.481Z,7.72
2022-10-11T01:38:10.201Z,8.35
2022-10-11T01:40:41.922Z,9.93
2022-10-11T01:43:11.203Z,8.88
2022-10-11T01:45:41.512Z,8.40
2022-10-11T01:48:11.881Z,9.38
2022-10-11T01:50:47.059Z,8.27
2022-10-11T01:53:55.835Z,10.05
2022-10-11T01:56:35.852Z,10.30
2022-10-11T01:59:19.668Z,10.45
2022-10-11T02:01:56.568Z,10.02
2022-10-11T02:04:31.567Z,11.57
2022-10-11T02:07:03.916Z,12.07
2022-10-11T02:09:37.532Z,11.95
2022-10-11T02:12:11.219Z,12.77
2022-10-11T02:14:42.764Z,11.63
2022-10-11T02:17:15.666Z,11.35
2022-10-11T02:19:46.482Z,12.27
2022-10-11T02:22:19.991Z,13.13
2022-10-11T02:24:51.314Z,11.95
2022-10-11T02:27:23.588Z,12.98
2022-10-11T02:29:54.879Z,14.48
2022-10-11T02:32:26.122Z,14.07
2022-10-11T02:34:56.356Z,14.27
2022-10-11T02:37:31.745Z,13.63
2022-10-11T02:40:06.499Z,11.93
2022-10-11T02:42:39.911Z,12.73
2022-10-11T02:45:13.281Z,11.18
2022-10-11T02:47:44.187Z,12.50
2022-10-11T02:50:13.385Z,11.85
2022-10-11T02:52:41.796Z,12.70
2022-10-11T02:55:11.282Z,11.07
2022-10-11T02:57:45.191Z,11.20
2022-10-11T03:00:14.919Z,10.35
2022-10-11T03:02:46.302Z,11.48
2022-10-11T03:05:16.297Z,11.63
2022-10-11T03:07:44.691Z,10.60
2022-10-11T03:10:13.374Z,11.52
2022-10-11T03:12:43.677Z,12.10
2022-10-11T03:15:12.282Z,10.60
2022-10-11T03:17:40.543Z,9.95
2022-10-11T03:20:11.298Z,9.60
2022-10-11T03:22:39.546Z,9.95
2022-10-11T03:25:10.961Z,8.63
2022-10-11T03:27:39.116Z,11.35
2022-10-11T03:30:08.914Z,9.55
2022-10-11T03:32:36.954Z,9.18
2022-10-11T03:35:05.642Z,8.30
2022-10-11T03:37:35.288Z,9.25
2022-10-11T03:40:03.372Z,9.30
2022-10-11T03:42:33.284Z,8.27
2022-10-11T03:45:04.748Z,8.05
2022-10-11T03:47:33.151Z,9.13
2022-10-11T03:50:01.234Z,9.13
2022-10-11T03:52:29.350Z,9.98
2022-10-11T03:54:59.114Z,7.72
2022-10-11T03:57:27.613Z,8.23
2022-10-11T03:59:55.895Z,8.05
2022-10-11T04:02:23.940Z,6.90
2022-10-11T04:04:51.958Z,4.55
2022-10-11T04:07:20.101Z,2.70
2022-10-11T04:09:52.090Z,2.15
2022-10-11T04:12:22.129Z,1.98
2022-10-11T04:14:50.327Z,1.65
2022-10-11T04:17:21.314Z,1.67
2022-10-11T04:19:49.373Z,1.40
2022-10-11T04:22:17.912Z,1.40
2022-10-11T04:24:45.993Z,1.98
2022-10-11T04:27:14.149Z,1.30
2022-10-11T04:29:43.664Z,1.58
2022-10-11T04:32:11.642Z,0.85
2022-10-11T04:34:42.727Z,1.50
2022-10-11T04:37:10.795Z,1.20
2022-10-11T04:39:39.339Z,1.10
2022-10-11T04:42:07.606Z,1.25
2022-10-11T04:44:35.666Z,1.00
2022-10-11T04:47:05.270Z,1.10
2022-10-11T04:49:33.348Z,1.40
2022-10-11T04:52:01.458Z,1.30
2022-10-11T04:54:29.604Z,1.15
2022-10-11T04:56:57.647Z,1.67
2022-10-11T04:59:25.802Z,1.58
2022-10-11T05:01:54.297Z,1.23
2022-10-11T05:04:24.013Z,1.17
2022-10-11T05:06:52.086Z,0.95
2022-10-11T05:09:20.054Z,1.25
2022-10-11T05:11:48.020Z,1.20
2022-10-11T05:14:16.027Z,1.15
2022-10-11T05:16:43.929Z,0.80
2022-10-11T05:19:12.284Z,1.00
2022-10-11T05:21:41.801Z,0.93
2022-10-11T05:24:10.133Z,1.60
2022-10-11T05:26:51.340Z,1.63
2022-10-11T05:29:19.454Z,1.10
2022-10-11T05:31:56.064Z,1.48
2022-10-11T05:34:24.142Z,1.20
2022-10-11T05:37:10.781Z,1.42
2022-10-11T05:39:45.643Z,1.70
2022-10-11T05:42:18.520Z,1.63
2022-10-11T05:44:58.517Z,2.03
2022-10-11T05:51:11.109Z,1.40
2022-10-11T05:54:08.324Z,1.30
2022-10-11T05:57:10.545Z,1.52
2022-10-11T05:59:57.181Z,2.25
2022-10-11T06:02:45.031Z,1.13
2022-10-11T06:05:40.192Z,1.50
2022-10-11T06:08:51.802Z,1.40
2022-10-11T06:11:54.289Z,1.58
2022-10-11T06:14:52.672Z,1.38
2022-10-11T06:17:29.938Z,1.45
2022-10-11T06:20:33.784Z,1.67
2022-10-11T06:23:08.325Z,1.20
2022-10-11T06:25:48.259Z,1.40
2022-10-11T06:29:20.234Z,1.52
2022-10-11T06:32:59.012Z,1.17
2022-10-11T06:35:08.869Z,1.00
2022-10-11T06:40:06.716Z,1.67
2022-10-11T06:43:09.513Z,1.02
2022-10-11T06:45:43.738Z,1.30
2022-10-11T06:48:12.811Z,1.30
2022-10-11T06:54:05.131Z,1.13
2022-10-11T07:00:10.310Z,1.20
2022-10-11T07:03:14.856Z,1.60
2022-10-11T07:05:47.113Z,1.35
2022-10-11T07:08:25.795Z,1.75
2022-10-11T07:11:15.036Z,1.63
2022-10-11T07:17:04.423Z,2.00
2022-10-11T07:20:07.244Z,0.93
2022-10-11T07:25:51.291Z,1.55
2022-10-11T07:28:25.814Z,1.35
2022-10-11T07:30:56.330Z,1.88
2022-10-11T07:33:50.021Z,1.50
2022-10-11T07:36:34.015Z,1.30
2022-10-11T07:39:15.272Z,2.20
2022-10-11T07:41:51.717Z,1.10
2022-10-11T07:49:10.901Z,1.40
2022-10-11T07:52:49.104Z,1.50
2022-10-11T07:55:35.777Z,0.90
2022-10-11T07:58:31.983Z,1.52
2022-10-11T08:01:04.531Z,1.20
2022-10-11T08:03:32.735Z,1.10
2022-10-11T08:06:03.098Z,1.13
2022-10-11T08:08:34.136Z,1.58
2022-10-11T08:11:02.552Z,1.25
2022-10-11T08:13:30.615Z,2.42
2022-10-11T08:15:59.249Z,1.35
2022-10-11T08:18:27.452Z,1.20
2022-10-11T08:20:56.890Z,1.52
2022-10-11T08:23:24.957Z,1.58
2022-10-11T08:25:58.113Z,1.15
2022-10-11T08:28:26.206Z,1.10
2022-10-11T08:30:55.959Z,1.27
2022-10-11T08:33:25.379Z,1.33
2022-10-11T08:35:54.548Z,1.40
2022-10-11T08:38:22.820Z,2.40
2022-10-11T08:40:53.364Z,1.45
2022-10-11T08:43:33.583Z,1.40
2022-10-11T08:46:05.217Z,1.20
2022-10-11T08:48:36.643Z,1.85
2022-10-11T08:51:10.794Z,2.10
2022-10-11T08:53:46.255Z,1.15
2022-10-11T08:56:15.691Z,1.27
2022-10-11T08:58:50.837Z,2.15
2022-10-11T09:01:23.361Z,1.45
2022-10-11T09:06:29.947Z,2.08
2022-10-11T09:09:24.255Z,1.67
2022-10-11T09:12:05.563Z,1.38
2022-10-11T09:14:52.292Z,1.25
2022-10-11T09:17:32.681Z,0.95
2022-10-11T09:20:40.218Z,1.95
2022-10-11T09:23:20.749Z,1.42
2022-10-11T09:25:52.972Z,1.52
2022-10-11T09:28:29.291Z,1.02
2022-10-11T09:31:00.430Z,1.63
2022-10-11T09:33:34.999Z,1.20
2022-10-11T09:36:13.405Z,1.42
2022-10-11T09:38:47.448Z,1.60
2022-10-11T09:41:23.083Z,1.35
2022-10-11T09:43:53.208Z,1.42
2022-10-11T09:46:25.574Z,1.65
2022-10-11T09:48:56.851Z,1.50
2022-10-11T09:51:28.383Z,2.25
2022-10-11T09:53:59.055Z,1.55
2022-10-11T09:56:30.807Z,1.15
2022-10-11T09:59:16.597Z,1.45
2022-10-11T10:01:46.327Z,1.48
2022-10-11T10:04:17.115Z,1.73
2022-10-11T10:06:45.592Z,1.40
2022-10-11T10:09:23.568Z,2.35
2022-10-11T10:11:51.939Z,1.92
2022-10-11T10:14:26.415Z,1.83
2022-10-11T10:17:03.854Z,1.85
2022-10-11T10:19:42.342Z,1.45
2022-10-11T10:22:18.950Z,2.05
2022-10-11T10:24:48.404Z,1.50
2022-10-11T10:27:21.187Z,1.25
2022-10-11T10:30:13.239Z,1.00
2022-10-11T10:32:51.676Z,1.23
2022-10-11T10:35:33.622Z,1.05
2022-10-11T10:38:09.370Z,1.45
2022-10-11T10:40:48.501Z,1.27
2022-10-11T10:43:19.368Z,1.10
2022-10-11T10:46:13.399Z,0.95
2022-10-11T10:51:49.441Z,1.27
2022-10-11T10:54:30.316Z,1.20
2022-10-11T10:57:02.046Z,1.27
2022-10-11T10:59:46.136Z,1.35
2022-10-11T11:02:39.571Z,0.82
2022-10-11T11:05:21.110Z,1.00
2022-10-11T11:07:54.058Z,1.35
2022-10-11T11:10:24.399Z,1.15
2022-10-11T11:13:03.610Z,1.13
2022-10-11T11:15:38.337Z,0.95
2022-10-11T11:18:22.662Z,0.80
2022-10-11T11:21:06.487Z,0.93
2022-10-11T11:23:41.860Z,1.50
2022-10-11T11:26:15.664Z,1.23
2022-10-11T11:28:53.452Z,0.70
2022-10-11T11:31:36.504Z,1.17
2022-10-11T11:34:13.789Z,2.17
2022-10-11T11:36:47.517Z,1.48
2022-10-11T11:39:19.379Z,1.00
2022-10-11T11:41:52.572Z,1.13
2022-10-11T11:44:27.651Z,1.25
2022-10-11T11:47:00.314Z,1.00
2022-10-11T11:49:35.267Z,1.02
2022-10-11T11:52:06.799Z,1.08
2022-10-11T11:54:48.613Z,0.70
2022-10-11T11:57:28.551Z,0.80
2022-10-11T12:00:03.299Z,1.48
2022-10-11T12:02:44.807Z,1.05
2022-10-11T12:05:15.746Z,1.13
2022-10-11T12:07:58.507Z,1.33
2022-10-11T12:10:36.564Z,0.90
2022-10-11T12:13:18.465Z,1.33
2022-10-11T12:16:10.705Z,1.25
2022-10-11T12:18:51.112Z,1.00
2022-10-11T12:21:23.816Z,1.10
2022-10-11T12:23:57.617Z,0.90
2022-10-11T12:26:37.940Z,0.73
2022-10-11T12:29:28.389Z,1.05
2022-10-11T12:32:32.870Z,1.10
2022-10-11T12:35:33.947Z,1.08
2022-10-11T12:38:14.455Z,1.13
2022-10-11T12:40:47.196Z,0.73
2022-10-11T12:43:51.970Z,1.63
2022-10-11T12:46:42.032Z,1.15
2022-10-11T12:49:47.216Z,1.33
2022-10-11T12:52:31.835Z,1.13
2022-10-11T12:55:29.253Z,1.23
2022-10-11T12:58:30.733Z,0.68
2022-10-11T13:01:24.502Z,1.05
2022-10-11T13:04:06.478Z,1.20
2022-10-11T13:06:38.186Z,0.93
2022-10-11T13:09:17.073Z,1.30
2022-10-11T13:11:50.026Z,0.93
2022-10-11T13:14:22.982Z,1.20
2022-10-11T13:17:00.118Z,1.10
2022-10-11T13:19:29.122Z,1.00
2022-10-11T13:21:59.349Z,1.20
2022-10-11T13:24:35.488Z,1.00
2022-10-11T13:27:05.642Z,1.45
2022-10-11T13:29:37.131Z,0.80
2022-10-11T13:32:09.211Z,1.05
2022-10-11T13:34:40.230Z,0.68
2022-10-11T13:37:09.106Z,1.02
2022-10-11T13:39:39.893Z,1.10
2022-10-11T13:42:11.486Z,0.82
2022-10-11T13:44:45.039Z,0.70
2022-10-11T13:47:15.906Z,1.00
2022-10-11T13:49:47.689Z,0.90
2022-10-11T13:52:22.780Z,1.58
2022-10-11T13:55:23.758Z,0.70
2022-10-11T13:57:53.084Z,1.23
2022-10-11T14:00:29.479Z,0.77
2022-10-11T14:03:03.873Z,1.10
2022-10-11T14:05:38.459Z,0.80
2022-10-11T14:08:47.069Z,1.23
2022-10-11T14:19:44.851Z,0.88
2022-10-11T14:23:24.933Z,0.75
2022-10-11T14:31:07.485Z,0.82
2022-10-11T14:34:54.297Z,1.13
2022-10-11T14:41:07.762Z,1.00
2022-10-11T14:43:35.924Z,0.98
2022-10-11T14:46:05.750Z,1.00
2022-10-11T14:48:54.489Z,0.85
2022-10-11T14:51:29.059Z,0.80
2022-10-11T14:53:57.354Z,1.02
2022-10-11T14:56:26.554Z,1.40
2022-10-11T14:58:54.794Z,0.70
2022-10-11T15:01:22.980Z,0.80
2022-10-11T15:03:51.182Z,0.80
2022-10-11T15:06:21.881Z,1.10
2022-10-11T15:08:51.463Z,1.75
2022-10-11T15:11:21.695Z,0.80
2022-10-11T15:13:50.037Z,0.77
2022-10-11T15:16:22.722Z,0.70
2022-10-11T15:18:51.983Z,1.02
2022-10-11T15:21:22.511Z,1.00
2022-10-11T15:23:53.286Z,1.30
2022-10-11T15:26:23.170Z,1.20
2022-10-11T15:28:55.556Z,1.48
2022-10-11T15:31:24.409Z,0.95
2022-10-11T15:33:52.712Z,1.65
2022-10-11T15:36:22.831Z,0.98
2022-10-11T15:38:52.872Z,1.05
2022-10-11T15:41:21.735Z,0.95
2022-10-11T15:43:50.628Z,1.50
2022-10-11T15:46:22.086Z,1.15
2022-10-11T15:48:51.461Z,1.00
2022-10-11T15:51:19.742Z,1.08
2022-10-11T15:53:48.010Z,1.30
2022-10-11T15:56:19.653Z,1.13
2022-10-11T15:58:47.778Z,1.50
2022-10-11T16:01:20.389Z,2.28
2022-10-11T16:03:51.189Z,1.35
2022-10-11T16:06:20.293Z,1.00
2022-10-11T16:08:48.980Z,1.30
2022-10-11T16:11:18.884Z,1.00
2022-10-11T16:13:47.558Z,1.65
2022-10-11T16:16:18.367Z,1.02
2022-10-11T16:18:46.534Z,1.08
2022-10-11T16:21:16.252Z,1.35
2022-10-11T16:23:44.753Z,1.20
2022-10-11T16:26:16.375Z,1.75
2022-10-11T16:28:47.591Z,1.37
2022-10-11T16:31:20.765Z,1.55
2022-10-11T16:34:24.103Z,1.65
2022-10-11T16:47:37.482Z,1.50
2022-10-11T16:50:46.185Z,1.42
2022-10-11T16:53:23.406Z,1.67
2022-10-11T16:56:40.191Z,1.90
2022-10-11T17:03:27.536Z,1.55
2022-10-11T17:06:08.612Z,1.65
2022-10-11T17:08:44.344Z,1.90
2022-10-11T17:12:09.656Z,0.80
2022-10-11T17:18:17.300Z,1.30
2022-10-11T17:21:08.762Z,1.30
2022-10-11T17:23:39.287Z,0.80
2022-10-11T17:26:22.534Z,1.27
2022-10-11T17:28:50.487Z,1.00
2022-10-11T17:31:18.809Z,1.25
2022-10-11T17:34:18.379Z,1.00
2022-10-11T17:36:49.258Z,1.20
2022-10-11T17:39:19.098Z,1.23
2022-10-11T17:41:55.663Z,1.75
2022-10-11T17:47:15.947Z,1.85
2022-10-11T17:49:45.897Z,1.08
2022-10-11T17:52:14.027Z,1.98
2022-10-11T17:54:42.198Z,1.10
2022-10-11T17:57:10.288Z,1.17
2022-10-11T17:59:38.495Z,1.40
2022-10-11T18:02:10.091Z,1.40
2022-10-11T18:04:38.205Z,1.67
2022-10-11T18:07:11.403Z,1.13
2022-10-11T18:09:40.879Z,1.30
2022-10-11T18:12:09.187Z,1.50
2022-10-11T18:14:37.575Z,2.28
2022-10-11T18:17:05.799Z,1.70
2022-10-11T18:19:33.955Z,1.35
2022-10-11T18:22:06.687Z,1.20
2022-10-11T18:24:36.769Z,1.30
2022-10-11T18:27:05.156Z,1.83
2022-10-11T18:29:33.318Z,1.30
2022-10-11T18:32:01.453Z,1.00
2022-10-11T18:34:29.574Z,1.55
2022-10-11T18:36:57.686Z,1.20
2022-10-11T18:39:25.985Z,1.50
2022-10-11T18:41:55.526Z,1.25
2022-10-11T18:44:23.649Z,1.83
2022-10-11T18:46:52.768Z,1.25
2022-10-11T18:49:22.541Z,1.20
2022-10-11T18:51:53.846Z,1.67
2022-10-11T18:54:22.113Z,0.93
2022-10-11T18:56:50.615Z,1.55
2022-10-11T18:59:21.714Z,1.33
2022-10-11T19:01:52.337Z,1.20
2022-10-11T19:04:21.192Z,1.42
2022-10-11T19:06:50.534Z,1.30
2022-10-11T19:09:21.621Z,1.27
2022-10-11T19:11:50.766Z,1.15
2022-10-11T19:14:23.535Z,0.85
2022-10-11T19:16:52.970Z,1.52
2022-10-11T19:19:23.889Z,1.30
2022-10-11T19:21:52.628Z,1.73
2022-10-11T19:24:22.786Z,0.65
2022-10-11T19:26:56.297Z,1.30
2022-10-11T19:29:29.450Z,1.10
2022-10-11T19:31:58.984Z,1.00
2022-10-11T19:34:28.804Z,1.30
2022-10-11T19:36:57.570Z,1.25
2022-10-11T19:39:29.378Z,1.92
2022-10-11T19:41:57.716Z,1.65
2022-10-11T19:44:26.275Z,1.10
2022-10-11T19:46:55.854Z,1.52
2022-10-11T19:49:26.301Z,1.30
2022-10-11T19:51:55.325Z,1.30
2022-10-11T19:54:23.958Z,1.52
2022-10-11T19:56:52.544Z,1.40
2022-10-11T19:59:20.700Z,1.48
2022-10-11T20:01:52.638Z,2.25
2022-10-11T20:04:50.457Z,1.75
2022-10-11T20:07:11.711Z,1.45
2022-10-11T20:09:39.939Z,2.35
2022-10-11T20:12:12.622Z,1.40
2022-10-11T20:14:43.228Z,1.30
2022-10-11T20:17:14.342Z,1.30
2022-10-11T20:19:44.014Z,2.05
2022-10-11T20:22:12.166Z,1.48
2022-10-11T20:24:40.288Z,1.33
2022-10-11T20:27:09.620Z,1.20
2022-10-11T20:29:37.712Z,1.80
2022-10-11T20:32:05.876Z,1.75
2022-10-11T20:34:34.077Z,1.35
2022-10-11T20:37:03.592Z,1.27
2022-10-11T20:39:31.689Z,1.30
2022-10-11T20:41:59.884Z,1.30
2022-10-11T20:44:28.060Z,1.23
2022-10-11T20:47:00.271Z,1.40
2022-10-11T20:49:31.162Z,1.63
2022-10-11T20:51:59.455Z,1.77
2022-10-11T20:54:29.845Z,1.70
2022-10-11T20:56:59.218Z,1.92
2022-10-11T20:59:27.860Z,1.98
2022-10-11T21:01:57.730Z,2.03
2022-10-11T21:04:25.903Z,1.60
2022-10-11T21:06:54.058Z,2.05
2022-10-11T21:09:22.232Z,1.50
2022-10-11T21:11:51.735Z,1.90
2022-10-11T21:14:19.931Z,1.60
2022-10-11T21:16:48.791Z,1.88
2022-10-11T21:19:17.193Z,1.80
2022-10-11T21:21:52.519Z,1.92
2022-10-11T21:24:21.857Z,1.77
2022-10-11T21:26:51.444Z,2.00
2022-10-11T21:29:19.738Z,2.15
2022-10-11T21:31:47.925Z,1.60
2022-10-11T21:34:16.414Z,1.90
2022-10-11T21:36:44.609Z,2.10
2022-10-11T21:39:12.733Z,2.10
2022-10-11T21:41:43.484Z,2.72
2022-10-11T21:44:13.269Z,2.25
2022-10-11T21:49:32.732Z,2.20
2022-10-11T21:52:00.866Z,2.28
2022-10-11T21:54:29.042Z,2.10
2022-10-11T21:56:57.300Z,2.30
2022-10-11T21:59:50.051Z,2.97
2022-10-11T22:02:58.147Z,2.25
2022-10-11T22:05:51.714Z,2.35
2022-10-11T22:11:28.011Z,1.75
2022-10-11T22:14:20.719Z,2.17
2022-10-11T22:17:08.889Z,1.60
2022-10-11T22:19:54.862Z,2.08
2022-10-11T22:22:42.189Z,2.30
2022-10-11T22:25:18.360Z,2.05
2022-10-11T22:27:54.525Z,3.20
2022-10-11T22:30:25.943Z,2.13
2022-10-11T22:33:11.010Z,2.30
2022-10-11T22:35:47.859Z,2.58
2022-10-11T22:38:37.475Z,2.13
2022-10-11T22:41:30.517Z,2.17
2022-10-11T22:46:48.467Z,1.63
2022-10-11T22:49:24.035Z,1.73
2022-10-11T22:52:01.607Z,2.05
2022-10-11T22:54:46.044Z,2.20
2022-10-11T22:57:20.472Z,1.08
2022-10-11T23:00:05.236Z,2.05
2022-10-11T23:03:15.304Z,2.40
2022-10-11T23:05:55.867Z,2.10
2022-10-11T23:08:29.385Z,1.63
2022-10-11T23:11:09.231Z,2.05
2022-10-11T23:13:56.628Z,2.20
2022-10-11T23:16:42.628Z,1.80
2022-10-11T23:19:22.986Z,2.60
2022-10-11T23:21:58.074Z,2.50
2022-10-11T23:24:32.238Z,1.80
2022-10-11T23:27:22.033Z,2.10
2022-10-11T23:30:01.497Z,1.67
2022-10-11T23:32:37.359Z,2.42
2022-10-11T23:35:18.848Z,2.13
2022-10-11T23:38:02.569Z,2.05
2022-10-11T23:40:43.480Z,2.30
2022-10-11T23:43:25.873Z,2.10
2022-10-11T23:46:12.791Z,1.80
2022-10-11T23:48:49.916Z,2.55
2022-10-11T23:51:37.148Z,1.90
2022-10-11T23:54:22.319Z,1.70
2022-10-11T23:56:58.928Z,1.80
2022-10-11T23:59:52.970Z,1.30
